createdAt,value
2018-10-06T00:00:21.069Z,11.81
2018-10-06T00:01:30.639Z,11.33
2018-10-06T00:02:39.936Z,10.86
2018-10-06T00:03:49.506Z,11.24
2018-10-06T00:04:59.343Z,11.33
2018-10-06T00:06:08.643Z,10.67
2018-10-06T00:07:17.942Z,10.96
2018-10-06T00:08:27.782Z,10.86
2018-10-06T00:09:37.896Z,10.57
2018-10-06T00:10:47.461Z,11.33
2018-10-06T00:11:57.037Z,11.24
2018-10-06T00:13:06.609Z,12.19
2018-10-06T00:14:16.450Z,12.48
2018-10-06T00:15:25.755Z,11.9
2018-10-06T00:16:35.869Z,12
2018-10-06T00:17:45.704Z,11.9
2018-10-06T00:18:55.820Z,11.61
2018-10-06T00:20:05.122Z,12.66
2018-10-06T00:21:14.690Z,12.28
2018-10-06T00:22:24.261Z,12.28
2018-10-06T00:23:34.103Z,12.09
2018-10-06T00:24:43.729Z,11.99
2018-10-06T00:25:53.847Z,13.33
2018-10-06T00:27:03.686Z,13.9
2018-10-06T00:28:13.524Z,12.09
2018-10-06T00:29:23.640Z,11.71
2018-10-06T00:30:32.937Z,12.19
2018-10-06T00:31:42.775Z,12.28
2018-10-06T00:32:52.343Z,13.04
2018-10-06T00:34:02.183Z,12.95
2018-10-06T00:35:12.032Z,12.66
2018-10-06T00:36:21.925Z,12.66
2018-10-06T00:37:31.764Z,12.09
2018-10-06T00:38:41.332Z,10.57
2018-10-06T00:39:51.438Z,9.33
2018-10-06T00:41:01.547Z,9.9
2018-10-06T00:42:11.666Z,8.37
2018-10-06T00:43:21.235Z,8.09
2018-10-06T00:44:30.532Z,8.09
2018-10-06T00:45:40.100Z,8.85
2018-10-06T00:46:50.206Z,8.85
2018-10-06T00:48:00.363Z,7.81
2018-10-06T00:49:09.931Z,8.18
2018-10-06T00:50:19.774Z,9.14
2018-10-06T00:51:29.347Z,9.23
2018-10-06T00:52:39.188Z,9.71
2018-10-06T00:53:49.026Z,10.47
2018-10-06T00:54:58.593Z,9.71
2018-10-06T00:56:08.435Z,8.95
2018-10-06T00:57:18.005Z,8.76
2018-10-06T00:58:27.580Z,8.09
2018-10-06T00:59:37.694Z,8.18
2018-10-06T01:00:47.804Z,8.18
2018-10-06T01:01:57.377Z,7.9
2018-10-06T01:03:07.227Z,8.66
2018-10-06T01:04:17.069Z,8.28
2018-10-06T01:05:27.180Z,8.37
2018-10-06T01:06:36.743Z,8.56
2018-10-06T01:07:46.036Z,9.99
2018-10-06T01:08:55.876Z,8.85
2018-10-06T01:10:05.983Z,9.04
2018-10-06T01:11:15.821Z,8.94
2018-10-06T01:12:25.934Z,9.61
2018-10-06T01:13:35.775Z,9.42
2018-10-06T01:14:45.613Z,9.42
2018-10-06T01:15:55.449Z,9.61
2018-10-06T01:17:04.756Z,8.85
2018-10-06T01:18:14.327Z,8.75
2018-10-06T01:19:23.626Z,9.04
2018-10-06T01:20:32.920Z,8.56
2018-10-06T01:21:42.763Z,7.14
2018-10-06T01:22:52.877Z,6.85
2018-10-06T01:24:02.716Z,5.8
2018-10-06T01:25:11.746Z,5.62
2018-10-06T01:26:21.585Z,5.14
2018-10-06T01:27:31.420Z,4.09
2018-10-06T01:28:41.255Z,3.33
2018-10-06T01:29:51.097Z,3.42
2018-10-06T01:31:00.937Z,3.14
2018-10-06T01:32:10.500Z,2.85
2018-10-06T01:33:20.070Z,3.05
2018-10-06T01:34:29.904Z,2.37
2018-10-06T01:35:39.737Z,3.42
2018-10-06T01:36:49.577Z,3.52
2018-10-06T01:37:59.692Z,3.8
2018-10-06T01:39:09.263Z,4.66
2018-10-06T01:40:18.558Z,5.23
2018-10-06T01:41:28.131Z,4.47
2018-10-06T01:42:37.699Z,3.8
2018-10-06T01:43:47.265Z,3.52
2018-10-06T01:44:57.111Z,3.05
2018-10-06T01:46:07.006Z,2.76
2018-10-06T01:47:16.574Z,2.76
2018-10-06T01:48:26.426Z,3.33
2018-10-06T01:49:35.723Z,4.19
2018-10-06T01:50:45.841Z,3.9
2018-10-06T01:51:56.133Z,4.38
2018-10-06T01:53:05.977Z,3.61
2018-10-06T01:54:15.807Z,2.66
2018-10-06T01:55:25.375Z,2
2018-10-06T01:56:34.947Z,0.95
2018-10-06T01:57:44.792Z,0.67
2018-10-06T01:58:54.091Z,0.09
2018-10-06T02:00:04.203Z,0.67
2018-10-06T02:01:13.773Z,0.57
2018-10-06T02:02:23.608Z,1.61
2018-10-06T02:03:33.456Z,2.37
2018-10-06T02:04:43.568Z,3.04
2018-10-06T02:05:53.686Z,3.99
2018-10-06T02:07:03.536Z,4.18
2018-10-06T02:08:13.384Z,4.47
2018-10-06T02:09:23.218Z,5.13
2018-10-06T02:10:33.063Z,5.8
2018-10-06T02:11:42.633Z,4.94
2018-10-06T02:12:52.767Z,4.28
2018-10-06T02:14:02.601Z,4.18
2018-10-06T02:15:12.726Z,4.37
2018-10-06T02:16:22.619Z,4.66
2018-10-06T02:17:32.730Z,3.42
2018-10-06T02:18:42.572Z,2.09
2018-10-06T02:19:52.683Z,2.09
2018-10-06T02:21:02.537Z,2
2018-10-06T02:22:12.664Z,2.95
2018-10-06T02:23:21.965Z,2.47
2018-10-06T02:24:31.533Z,1.81
2018-10-06T02:25:41.367Z,2.47
2018-10-06T02:26:50.667Z,2.75
2018-10-06T02:27:59.964Z,2.75
2018-10-06T02:29:09.805Z,2.56
2018-10-06T02:30:19.507Z,1.71
2018-10-06T02:31:29.360Z,1.71
2018-10-06T02:32:38.931Z,1.14
2018-10-06T02:33:49.042Z,1.04
2018-10-06T02:34:58.882Z,0.76
2018-10-06T02:36:08.479Z,0.85
2018-10-06T02:37:18.049Z,1.52
2018-10-06T02:38:27.626Z,3.33
2018-10-06T02:39:36.927Z,3.14
2018-10-06T02:40:46.763Z,2.85
2018-10-06T02:41:56.872Z,1.81
2018-10-06T02:43:06.169Z,1.9
2018-10-06T02:44:16.018Z,2.75
2018-10-06T02:45:25.592Z,3.14
2018-10-06T02:46:35.160Z,3.04
2018-10-06T02:47:45.000Z,1.42
2018-10-06T02:48:54.847Z,2
2018-10-06T02:50:04.696Z,2.28
2018-10-06T02:51:14.551Z,3.52
2018-10-06T02:52:24.393Z,3.61
2018-10-06T02:53:34.242Z,3.04
2018-10-06T02:54:44.078Z,3.14
2018-10-06T02:55:53.426Z,3.04
2018-10-06T02:57:03.267Z,2.95
2018-10-06T02:58:12.835Z,2.85
2018-10-06T02:59:22.957Z,3.7
2018-10-06T03:00:32.818Z,4.18
2018-10-06T03:01:42.950Z,4.28
2018-10-06T03:02:53.061Z,4.37
2018-10-06T03:04:02.903Z,3.9
2018-10-06T03:05:12.742Z,3.52
2018-10-06T03:06:22.307Z,3.99
2018-10-06T03:07:32.201Z,4.37
2018-10-06T03:08:42.046Z,4.09
2018-10-06T03:09:51.616Z,4.28
2018-10-06T03:11:01.723Z,4.18
2018-10-06T03:12:11.287Z,4.75
2018-10-06T03:13:21.229Z,4.37
2018-10-06T03:14:31.074Z,3.7
2018-10-06T03:15:40.912Z,2.56
2018-10-06T03:16:50.778Z,2.47
2018-10-06T03:18:00.343Z,2.66
2018-10-06T03:19:09.961Z,2.56
2018-10-06T03:20:19.527Z,2
2018-10-06T03:21:29.360Z,1.33
2018-10-06T03:22:38.930Z,0.95
2018-10-06T03:23:48.502Z,0.57
2018-10-06T03:24:58.343Z,1.9
2018-10-06T03:26:07.643Z,2.19
2018-10-06T03:27:17.479Z,2.56
2018-10-06T03:28:27.590Z,2.66
2018-10-06T03:29:37.717Z,3.04
2018-10-06T03:30:47.612Z,4.28
2018-10-06T03:31:57.502Z,3.89
2018-10-06T03:33:07.360Z,3.7
2018-10-06T03:34:16.664Z,4.28
2018-10-06T03:35:26.501Z,4.28
2018-10-06T03:36:36.080Z,3.7
2018-10-06T03:37:46.207Z,3.99
2018-10-06T03:38:55.510Z,4.08
2018-10-06T03:40:05.094Z,4.56
2018-10-06T03:41:14.664Z,4.37
2018-10-06T03:42:24.291Z,3.99
2018-10-06T03:43:33.589Z,3.52
2018-10-06T03:44:43.163Z,4.08
2018-10-06T03:45:52.737Z,4.47
2018-10-06T03:47:02.309Z,5.04
2018-10-06T03:48:11.887Z,5.04
2018-10-06T03:49:21.463Z,4.94
2018-10-06T03:50:31.330Z,4.18
2018-10-06T03:51:41.172Z,3.89
2018-10-06T03:52:50.744Z,2
2018-10-06T03:54:00.353Z,1.33
2018-10-06T03:55:10.508Z,0.67
2018-10-06T03:56:20.077Z,0.19
2018-10-06T03:57:29.919Z,1.14
2018-10-06T03:58:39.775Z,0.85
2018-10-06T03:59:49.078Z,1.8
2018-10-06T04:00:59.198Z,2.47
2018-10-06T04:02:09.048Z,1.52
2018-10-06T04:03:18.894Z,0.76
2018-10-06T04:04:28.471Z,0
2018-10-06T04:05:38.310Z,0
2018-10-06T04:06:47.614Z,0
2018-10-06T04:07:57.454Z,0
2018-10-06T04:09:07.297Z,0.38
2018-10-06T04:10:16.610Z,0.85
2018-10-06T04:11:26.453Z,2
2018-10-06T04:12:36.559Z,3.23
2018-10-06T04:13:46.135Z,3.04
2018-10-06T04:14:56.271Z,3.04
2018-10-06T04:16:06.386Z,3.23
2018-10-06T04:17:16.493Z,2.75
2018-10-06T04:18:26.069Z,3.04
2018-10-06T04:19:35.370Z,3.33
2018-10-06T04:20:45.211Z,2.09
2018-10-06T04:21:55.059Z,3.42
2018-10-06T04:23:04.905Z,3.99
2018-10-06T04:24:15.015Z,4.47
2018-10-06T04:25:24.861Z,4.28
2018-10-06T04:26:34.712Z,3.23
2018-10-06T04:27:44.286Z,2.56
2018-10-06T04:28:54.393Z,2.37
2018-10-06T04:30:04.241Z,1.33
2018-10-06T04:31:14.081Z,2.28
2018-10-06T04:32:23.926Z,1.9
2018-10-06T04:33:34.042Z,1.14
2018-10-06T04:34:43.608Z,0.67
2018-10-06T04:35:53.449Z,0.38
2018-10-06T04:37:03.299Z,0.09
2018-10-06T04:38:13.412Z,0.38
2018-10-06T04:39:23.255Z,0.19
2018-10-06T04:40:33.095Z,0
2018-10-06T04:41:43.201Z,0
2018-10-06T04:42:53.316Z,0
2018-10-06T04:44:03.152Z,0
2018-10-06T04:45:13.255Z,0
2018-10-06T04:46:23.368Z,0
2018-10-06T04:47:33.206Z,0
2018-10-06T04:48:43.046Z,0
2018-10-06T04:49:53.171Z,0
2018-10-06T04:51:02.740Z,0
2018-10-06T04:52:12.632Z,0
2018-10-06T04:53:22.325Z,0
2018-10-06T04:54:32.166Z,0
2018-10-06T04:55:42.004Z,0
2018-10-06T04:56:51.852Z,0
2018-10-06T04:58:01.955Z,0
2018-10-06T04:59:11.801Z,0
2018-10-06T05:00:21.183Z,0
2018-10-06T05:01:30.757Z,0
2018-10-06T05:02:40.053Z,0
2018-10-06T05:03:49.624Z,0
2018-10-06T05:04:59.742Z,0
2018-10-06T05:06:09.856Z,0
2018-10-06T05:07:19.700Z,0
2018-10-06T05:08:29.271Z,0
2018-10-06T05:09:39.380Z,0
2018-10-06T05:10:48.695Z,0
2018-10-06T05:11:58.610Z,0
2018-10-06T05:13:08.454Z,0
2018-10-06T05:14:18.287Z,0
2018-10-06T05:15:28.420Z,0
2018-10-06T05:16:38.253Z,0
2018-10-06T05:17:47.825Z,0
2018-10-06T05:18:57.662Z,0
2018-10-06T05:20:07.771Z,0
2018-10-06T05:21:17.623Z,0
2018-10-06T05:22:27.193Z,0
2018-10-06T05:23:37.480Z,0
2018-10-06T05:24:48.084Z,0
2018-10-06T05:25:57.655Z,0
2018-10-06T05:27:07.503Z,0.28
2018-10-06T05:28:17.345Z,0
2018-10-06T05:29:26.917Z,0
2018-10-06T05:30:36.488Z,0
2018-10-06T05:31:46.056Z,0
2018-10-06T05:32:55.620Z,0
2018-10-06T05:34:05.238Z,0
2018-10-06T05:35:15.876Z,0
2018-10-06T05:36:25.993Z,0
2018-10-06T05:37:35.841Z,0
2018-10-06T05:38:45.954Z,0
2018-10-06T05:39:55.527Z,0
2018-10-06T05:41:04.928Z,0
2018-10-06T05:42:14.503Z,0
2018-10-06T05:43:24.340Z,0
2018-10-06T05:44:34.189Z,0
2018-10-06T05:45:44.035Z,0
2018-10-06T05:46:53.873Z,0
2018-10-06T05:48:03.974Z,0
2018-10-06T05:49:14.088Z,0
2018-10-06T05:50:24.208Z,0
2018-10-06T05:51:34.330Z,0
2018-10-06T05:52:43.626Z,0
2018-10-06T05:53:53.195Z,0
2018-10-06T05:55:03.027Z,0
2018-10-06T05:56:12.326Z,0
2018-10-06T05:57:22.168Z,0
2018-10-06T05:58:32.281Z,0
2018-10-06T05:59:42.145Z,0
2018-10-06T06:00:52.272Z,0
2018-10-06T06:02:02.397Z,0
2018-10-06T06:03:11.700Z,0
2018-10-06T06:04:20.997Z,0
2018-10-06T06:05:30.588Z,0
2018-10-06T06:06:40.155Z,0
2018-10-06T06:07:50.280Z,0
2018-10-06T06:09:00.125Z,0
2018-10-06T06:10:09.960Z,0
2018-10-06T06:11:19.801Z,0
2018-10-06T06:12:29.377Z,0
2018-10-06T06:13:39.222Z,0
2018-10-06T06:14:49.071Z,0
2018-10-06T06:15:59.177Z,0
2018-10-06T06:17:09.017Z,0
2018-10-06T06:18:18.874Z,0
2018-10-06T06:19:28.983Z,0
2018-10-06T06:20:39.101Z,0
2018-10-06T06:21:48.953Z,0
2018-10-06T06:22:58.253Z,0
2018-10-06T06:24:08.096Z,0
2018-10-06T06:25:18.225Z,0
2018-10-06T06:26:28.345Z,0
2018-10-06T06:27:38.188Z,0
2018-10-06T06:28:48.042Z,0
2018-10-06T06:29:57.610Z,0
2018-10-06T06:31:07.511Z,0
2018-10-06T06:32:18.054Z,0
2018-10-06T06:33:27.831Z,0
2018-10-06T06:34:37.405Z,0
2018-10-06T06:35:46.973Z,0
2018-10-06T06:36:56.000Z,0
2018-10-06T06:38:05.568Z,0
2018-10-06T06:39:15.795Z,0
2018-10-06T06:40:25.357Z,0
2018-10-06T06:41:35.463Z,0
2018-10-06T06:42:45.569Z,0
2018-10-06T06:43:54.899Z,0
2018-10-06T06:45:05.602Z,0
2018-10-06T06:46:15.527Z,0
2018-10-06T06:47:24.824Z,0
2018-10-06T06:48:34.659Z,0
2018-10-06T06:49:44.227Z,0
2018-10-06T06:50:53.794Z,0
2018-10-06T06:52:03.639Z,0
2018-10-06T06:53:13.495Z,0
2018-10-06T06:54:23.611Z,0
2018-10-06T06:55:33.185Z,0
2018-10-06T06:56:43.020Z,0
2018-10-06T06:57:52.589Z,0
2018-10-06T06:59:02.703Z,0
2018-10-06T07:00:12.001Z,0
2018-10-06T07:01:21.571Z,0
2018-10-06T07:02:31.409Z,0
2018-10-06T07:03:41.250Z,0
2018-10-06T07:04:51.088Z,0
2018-10-06T07:06:01.213Z,0
2018-10-06T07:07:11.330Z,0
2018-10-06T07:08:21.176Z,0
2018-10-06T07:09:30.744Z,0
2018-10-06T07:10:40.581Z,0
2018-10-06T07:11:50.197Z,0
2018-10-06T07:12:59.766Z,0
2018-10-06T07:14:09.886Z,0
2018-10-06T07:15:19.776Z,0
2018-10-06T07:16:29.615Z,0
2018-10-06T07:17:39.738Z,0
2018-10-06T07:18:49.583Z,0
2018-10-06T07:19:58.883Z,0
2018-10-06T07:21:08.725Z,0
2018-10-06T07:22:18.838Z,0
2018-10-06T07:23:29.002Z,0
2018-10-06T07:24:39.048Z,0
2018-10-06T07:25:48.469Z,0
2018-10-06T07:26:57.771Z,0
2018-10-06T07:28:07.620Z,0
2018-10-06T07:29:17.740Z,0
2018-10-06T07:30:27.588Z,0
2018-10-06T07:31:36.895Z,0
2018-10-06T07:32:46.198Z,0
2018-10-06T07:33:56.304Z,0
2018-10-06T07:35:05.888Z,0
2018-10-06T07:36:15.725Z,0
2018-10-06T07:37:25.573Z,0
2018-10-06T07:38:35.687Z,0
2018-10-06T07:39:45.800Z,0
2018-10-06T07:40:55.102Z,0
2018-10-06T07:42:04.402Z,0
2018-10-06T07:43:13.971Z,0
2018-10-06T07:44:23.554Z,0
2018-10-06T07:45:32.863Z,0
2018-10-06T07:46:42.713Z,0
2018-10-06T07:47:52.560Z,0
2018-10-06T07:49:02.680Z,0
2018-10-06T07:50:12.257Z,0
2018-10-06T07:51:22.368Z,0
2018-10-06T07:52:31.983Z,0
2018-10-06T07:53:41.827Z,0
2018-10-06T07:54:51.126Z,0
2018-10-06T07:56:01.237Z,0
2018-10-06T07:57:11.368Z,0
2018-10-06T07:58:21.280Z,0
2018-10-06T07:59:31.241Z,0
2018-10-06T08:00:41.138Z,0
2018-10-06T08:01:51.004Z,0
2018-10-06T08:03:00.577Z,0
2018-10-06T08:04:10.152Z,0
2018-10-06T08:05:19.719Z,0
2018-10-06T08:06:29.409Z,0
2018-10-06T08:07:39.889Z,0
2018-10-06T08:08:50.088Z,0
2018-10-06T08:09:59.639Z,0
2018-10-06T08:11:08.937Z,0
2018-10-06T08:12:18.509Z,0
2018-10-06T08:13:28.084Z,0
2018-10-06T08:14:38.195Z,0
2018-10-06T08:15:47.502Z,0
2018-10-06T08:16:57.348Z,0
2018-10-06T08:18:06.917Z,0
2018-10-06T08:19:16.757Z,0
2018-10-06T08:20:26.335Z,0
2018-10-06T08:21:36.182Z,0
2018-10-06T08:22:45.747Z,0
2018-10-06T08:23:55.583Z,0
2018-10-06T08:25:05.697Z,0
2018-10-06T08:26:15.271Z,0
2018-10-06T08:27:25.116Z,0
2018-10-06T08:28:34.686Z,0
2018-10-06T08:29:44.532Z,0
2018-10-06T08:30:54.376Z,0
2018-10-06T08:32:03.684Z,0
2018-10-06T08:33:13.917Z,0
2018-10-06T08:34:23.759Z,0
2018-10-06T08:35:33.877Z,0
2018-10-06T08:36:43.725Z,0
2018-10-06T08:37:53.577Z,0
2018-10-06T08:39:03.158Z,0
2018-10-06T08:40:12.732Z,0
2018-10-06T08:41:22.835Z,0
2018-10-06T08:42:31.882Z,0
2018-10-06T08:43:41.911Z,0
2018-10-06T08:44:51.746Z,0
2018-10-06T08:46:01.594Z,0
2018-10-06T08:47:11.705Z,0
2018-10-06T08:48:21.872Z,0
2018-10-06T08:49:31.707Z,0
2018-10-06T08:50:41.311Z,0
2018-10-06T08:51:51.421Z,0
2018-10-06T08:53:01.260Z,0.38
2018-10-06T08:54:10.555Z,2.48
2018-10-06T08:55:20.393Z,4.49
2018-10-06T08:56:30.423Z,5.91
2018-10-06T08:57:40.349Z,5.35
2018-10-06T08:58:50.464Z,6.49
2018-10-06T08:59:59.762Z,6.21
2018-10-06T09:01:09.893Z,5.82
2018-10-06T09:02:19.744Z,4.58
2018-10-06T09:03:29.855Z,5.06
2018-10-06T09:04:39.428Z,4.58
2018-10-06T09:05:49.276Z,3.81
2018-10-06T09:06:59.273Z,5.73
2018-10-06T09:08:08.859Z,7.06
2018-10-06T09:09:18.162Z,7.45
2018-10-06T09:10:27.747Z,9.17
2018-10-06T09:11:37.592Z,7.26
2018-10-06T09:12:47.713Z,6.87
2018-10-06T09:13:57.067Z,7.45
2018-10-06T09:15:06.372Z,9.26
2018-10-06T09:16:16.488Z,11.36
2018-10-06T09:17:26.596Z,13.66
2018-10-06T09:18:36.177Z,13.66
2018-10-06T09:19:45.318Z,13.66
2018-10-06T09:20:54.892Z,11.37
2018-10-06T09:22:04.738Z,12.9
2018-10-06T09:23:14.305Z,18.06
2018-10-06T09:24:23.337Z,16.73
2018-10-06T09:25:33.182Z,18.64
2018-10-06T09:26:43.298Z,19.31
2018-10-06T09:27:52.601Z,18.45
2018-10-06T09:29:02.445Z,18.83
2018-10-06T09:30:12.015Z,21.12
2018-10-06T09:31:21.859Z,22.27
2018-10-06T09:32:31.966Z,24.48
2018-10-06T09:33:41.541Z,25.04
2018-10-06T09:34:51.655Z,29.83
2018-10-06T09:36:01.501Z,30.32
2018-10-06T09:37:11.344Z,29.84
2018-10-06T09:38:21.459Z,29.17
2018-10-06T09:39:31.300Z,28.22
2018-10-06T09:40:41.143Z,25.54
2018-10-06T09:41:50.528Z,26.59
2018-10-06T09:43:00.540Z,24.49
2018-10-06T09:44:10.118Z,25.15
2018-10-06T09:45:19.960Z,26.97
2018-10-06T09:46:29.542Z,30.8
2018-10-06T09:47:39.392Z,28.98
2018-10-06T09:48:48.960Z,28.22
2018-10-06T09:49:58.535Z,35.49
2018-10-06T09:51:08.132Z,40.58
2018-10-06T09:52:17.980Z,42.11
2018-10-06T09:53:27.834Z,41.44
2018-10-06T09:54:37.778Z,42.49
2018-10-06T09:55:47.351Z,44.98
2018-10-06T09:56:57.203Z,44.4
2018-10-06T09:58:06.775Z,46.61
2018-10-06T09:59:16.349Z,44.71
2018-10-06T10:00:25.687Z,43.95
2018-10-06T10:01:34.994Z,47.58
2018-10-06T10:02:44.834Z,46.91
2018-10-06T10:03:54.677Z,47.78
2018-10-06T10:05:04.251Z,46.44
2018-10-06T10:06:14.093Z,47.78
2018-10-06T10:07:23.393Z,49.98
2018-10-06T10:08:32.966Z,50.65
2018-10-06T10:09:43.235Z,50.74
2018-10-06T10:10:53.654Z,49.4
2018-10-06T10:12:03.528Z,45.67
2018-10-06T10:13:13.415Z,46.62
2018-10-06T10:14:23.534Z,47.68
2018-10-06T10:15:33.461Z,47.78
2018-10-06T10:16:42.847Z,48.93
2018-10-06T10:17:53.402Z,48.25
2018-10-06T10:19:03.898Z,49.6
2018-10-06T10:20:13.206Z,49.11
2018-10-06T10:21:22.781Z,50.58
2018-10-06T10:22:32.772Z,52.01
2018-10-06T10:23:43.121Z,54.22
2018-10-06T10:24:53.750Z,55.27
2018-10-06T10:26:03.331Z,55.46
2018-10-06T10:27:13.440Z,57.38
2018-10-06T10:28:22.879Z,58.05
2018-10-06T10:29:33.025Z,58.08
2018-10-06T10:30:43.153Z,56.16
2018-10-06T10:31:52.727Z,57.03
2018-10-06T10:33:02.580Z,57.21
2018-10-06T10:34:11.888Z,58.27
2018-10-06T10:35:21.774Z,59.04
2018-10-06T10:36:31.632Z,62.49
2018-10-06T10:37:41.209Z,61.15
2018-10-06T10:38:51.330Z,62.9
2018-10-06T10:40:00.911Z,60.5
2018-10-06T10:41:10.491Z,63.92
2018-10-06T10:42:20.065Z,63.35
2018-10-06T10:43:29.640Z,63.86
2018-10-06T10:44:39.482Z,65.49
2018-10-06T10:45:49.625Z,67.12
2018-10-06T10:46:58.935Z,67.02
2018-10-06T10:48:08.548Z,69.81
2018-10-06T10:49:18.629Z,68.12
2018-10-06T10:50:28.643Z,69.71
2018-10-06T10:51:38.642Z,69.84
2018-10-06T10:52:48.485Z,70.7
2018-10-06T10:53:58.323Z,70.23
2018-10-06T10:55:08.170Z,70.03
2018-10-06T10:56:18.009Z,68.12
2018-10-06T10:57:28.173Z,67.16
2018-10-06T10:58:38.147Z,68.12
2018-10-06T10:59:47.695Z,68.12
2018-10-06T11:00:58.394Z,68.12
2018-10-06T11:02:08.093Z,67.73
2018-10-06T11:03:18.205Z,68.79
2018-10-06T11:04:28.055Z,70.51
2018-10-06T11:05:37.687Z,69.56
2018-10-06T11:06:47.533Z,71.57
2018-10-06T11:07:57.112Z,72.33
2018-10-06T11:09:06.961Z,73
2018-10-06T11:10:16.597Z,73.33
2018-10-06T11:11:26.394Z,73.81
2018-10-06T11:12:36.555Z,73.24
2018-10-06T11:13:45.863Z,70.74
2018-10-06T11:14:55.441Z,73.14
2018-10-06T11:16:04.747Z,72.85
2018-10-06T11:17:14.376Z,70.55
2018-10-06T11:18:24.382Z,72.08
2018-10-06T11:19:34.497Z,71.89
2018-10-06T11:20:44.343Z,72.37
2018-10-06T11:21:54.194Z,72.08
2018-10-06T11:23:03.502Z,73.33
2018-10-06T11:24:12.536Z,71.55
2018-10-06T11:25:22.430Z,74.77
2018-10-06T11:26:32.286Z,72.37
2018-10-06T11:27:41.872Z,74.68
2018-10-06T11:28:51.177Z,76.25
2018-10-06T11:30:00.754Z,75.87
2018-10-06T11:31:10.597Z,75
2018-10-06T11:32:20.709Z,74.33
2018-10-06T11:33:30.608Z,75.2
2018-10-06T11:34:40.727Z,75
2018-10-06T11:35:50.296Z,75.77
2018-10-06T11:37:00.421Z,75.1
2018-10-06T11:38:09.890Z,77.98
2018-10-06T11:39:20.051Z,77.88
2018-10-06T11:40:29.090Z,78.5
2018-10-06T11:41:38.407Z,77.63
2018-10-06T11:42:48.265Z,77.98
2018-10-06T11:43:58.380Z,78.5
2018-10-06T11:45:07.688Z,78.02
2018-10-06T11:46:16.998Z,77.83
2018-10-06T11:47:27.117Z,78.4
2018-10-06T11:48:36.689Z,78.4
2018-10-06T11:49:46.398Z,79.27
2018-10-06T11:50:55.450Z,79.27
2018-10-06T11:52:05.038Z,77.63
2018-10-06T11:53:15.152Z,77.88
2018-10-06T11:54:24.727Z,77.88
2018-10-06T11:55:33.764Z,77.5
2018-10-06T11:56:43.880Z,78.11
2018-10-06T11:57:53.723Z,78.69
2018-10-06T11:59:03.567Z,79.55
2018-10-06T12:00:13.561Z,78.59
2018-10-06T12:01:24.288Z,79.84
2018-10-06T12:02:33.597Z,79.79
2018-10-06T12:03:43.712Z,80.94
2018-10-06T12:04:53.556Z,81.04
2018-10-06T12:06:03.192Z,80.94
2018-10-06T12:07:12.840Z,80.5
2018-10-06T12:08:22.688Z,80.79
2018-10-06T12:09:32.275Z,81.42
2018-10-06T12:10:42.130Z,81.46
2018-10-06T12:11:51.720Z,82.04
2018-10-06T12:13:01.566Z,81.46
2018-10-06T12:14:11.421Z,81.84
2018-10-06T12:15:21.282Z,82.9
2018-10-06T12:16:31.407Z,82.94
2018-10-06T12:17:41.257Z,83.14
2018-10-06T12:18:51.374Z,82.65
2018-10-06T12:20:01.219Z,83.33
2018-10-06T12:21:10.531Z,82.85
2018-10-06T12:22:19.840Z,83.23
2018-10-06T12:23:29.737Z,83.96
2018-10-06T12:24:39.043Z,84.34
2018-10-06T12:25:48.893Z,84.39
2018-10-06T12:26:59.220Z,84.19
2018-10-06T12:28:09.343Z,84.87
2018-10-06T12:29:18.916Z,84.63
2018-10-06T12:30:28.762Z,84.67
2018-10-06T12:31:38.613Z,84.29
2018-10-06T12:32:48.460Z,82.94
2018-10-06T12:33:58.312Z,85.5
2018-10-06T12:35:08.254Z,84
2018-10-06T12:36:19.022Z,84.67
2018-10-06T12:37:28.882Z,84.77
2018-10-06T12:38:39.013Z,84.87
2018-10-06T12:39:48.867Z,84.58
2018-10-06T12:40:58.714Z,84.58
2018-10-06T12:42:08.736Z,84.67
2018-10-06T12:43:18.860Z,83.62
2018-10-06T12:44:28.434Z,83.62
2018-10-06T12:45:38.011Z,84.19
2018-10-06T12:46:48.126Z,84.19
2018-10-06T12:47:57.711Z,84.67
2018-10-06T12:49:07.026Z,84.19
2018-10-06T12:50:17.148Z,84.77
2018-10-06T12:51:26.856Z,84.87
2018-10-06T12:52:36.667Z,85.16
2018-10-06T12:53:46.521Z,85.44
2018-10-06T12:54:56.375Z,84.97
2018-10-06T12:56:05.957Z,86.02
2018-10-06T12:57:15.807Z,85.16
2018-10-06T12:58:24.895Z,85.35
2018-10-06T12:59:34.198Z,85.06
2018-10-06T13:00:44.054Z,85.39
2018-10-06T13:01:53.636Z,84.72
2018-10-06T13:03:03.490Z,85.3
2018-10-06T13:04:13.338Z,85.97
2018-10-06T13:05:23.188Z,85.3
2018-10-06T13:06:33.307Z,85.3
2018-10-06T13:07:43.423Z,85.87
2018-10-06T13:08:53.285Z,86.07
2018-10-06T13:10:03.133Z,85.43
2018-10-06T13:11:12.711Z,85.49
2018-10-06T13:12:22.289Z,85.72
2018-10-06T13:13:31.600Z,86.49
2018-10-06T13:14:41.442Z,86.11
2018-10-06T13:15:51.562Z,86.3
2018-10-06T13:17:01.420Z,86.3
2018-10-06T13:18:11.264Z,86.25
2018-10-06T13:19:21.106Z,86.78
2018-10-06T13:20:31.226Z,86.25
2018-10-06T13:21:41.129Z,87.02
2018-10-06T13:22:50.973Z,87.36
2018-10-06T13:24:01.088Z,86.4
2018-10-06T13:25:10.668Z,86.3
2018-10-06T13:26:20.511Z,86.63
2018-10-06T13:27:30.101Z,87.07
2018-10-06T13:28:40.239Z,87.02
2018-10-06T13:29:50.355Z,87.02
2018-10-06T13:31:00.468Z,87.5
2018-10-06T13:32:10.314Z,86.92
2018-10-06T13:33:20.429Z,86.73
2018-10-06T13:34:30.551Z,86.82
2018-10-06T13:35:40.393Z,86.82
2018-10-06T13:36:50.515Z,87.54
2018-10-06T13:38:00.363Z,87.26
2018-10-06T13:39:10.209Z,87.5
2018-10-06T13:40:20.074Z,86.82
2018-10-06T13:41:30.210Z,87.21
2018-10-06T13:42:40.061Z,88.02
2018-10-06T13:43:50.183Z,86.73
2018-10-06T13:44:59.765Z,86.96
2018-10-06T13:46:09.892Z,86.87
2018-10-06T13:47:20.081Z,87.35
2018-10-06T13:48:29.934Z,88.22
2018-10-06T13:49:39.791Z,87.74
2018-10-06T13:50:49.974Z,87.83
2018-10-06T13:51:59.559Z,87.45
2018-10-06T13:53:09.680Z,87.54
2018-10-06T13:54:19.803Z,87.06
2018-10-06T13:55:29.653Z,87.26
2018-10-06T13:56:39.545Z,86.77
2018-10-06T13:57:49.404Z,86.77
2018-10-06T13:58:59.316Z,87.35
2018-10-06T14:00:09.180Z,87.54
2018-10-06T14:01:18.783Z,87.74
2018-10-06T14:02:28.642Z,88.22
2018-10-06T14:03:38.498Z,87.45
2018-10-06T14:04:48.347Z,87.93
2018-10-06T14:05:57.924Z,88.12
2018-10-06T14:07:07.497Z,87.64
2018-10-06T14:08:17.077Z,86.87
2018-10-06T14:09:26.940Z,87.45
2018-10-06T14:10:36.526Z,87.26
2018-10-06T14:11:45.842Z,87.64
2018-10-06T14:12:55.420Z,87.74
2018-10-06T14:14:04.990Z,87.93
2018-10-06T14:15:14.028Z,88.12
2018-10-06T14:16:23.607Z,87.54
2018-10-06T14:17:33.463Z,87.93
2018-10-06T14:18:43.312Z,88.12
2018-10-06T14:19:53.440Z,88.12
2018-10-06T14:21:03.290Z,88.02
2018-10-06T14:22:13.136Z,88.02
2018-10-06T14:23:22.710Z,88.79
2018-10-06T14:24:32.555Z,88.89
2018-10-06T14:25:42.135Z,88.79
2018-10-06T14:26:51.723Z,88.89
2018-10-06T14:28:01.855Z,88.02
2018-10-06T14:29:10.894Z,88.51
2018-10-06T14:30:20.743Z,88.51
2018-10-06T14:31:30.869Z,88.7
2018-10-06T14:32:40.634Z,89.09
2018-10-06T14:33:50.305Z,88.79
2018-10-06T14:35:00.151Z,88.99
2018-10-06T14:36:10.014Z,88.99
2018-10-06T14:37:19.869Z,88.99
2018-10-06T14:38:29.987Z,89.57
2018-10-06T14:39:39.842Z,88.6
2018-10-06T14:40:49.429Z,88.41
2018-10-06T14:41:59.280Z,88.7
2018-10-06T14:43:09.124Z,88.89
2018-10-06T14:44:19.441Z,88.41
2018-10-06T14:45:30.097Z,89.18
2018-10-06T14:46:39.675Z,88.7
2018-10-06T14:47:49.530Z,89.18
2018-10-06T14:48:58.569Z,89.28
2018-10-06T14:50:08.525Z,89.47
2018-10-06T14:51:18.746Z,90.1
2018-10-06T14:52:28.339Z,89.67
2018-10-06T14:53:38.452Z,89.47
2018-10-06T14:54:48.630Z,89.28
2018-10-06T14:55:57.940Z,89.67
2018-10-06T14:57:07.796Z,89.09
2018-10-06T14:58:17.370Z,89.47
2018-10-06T14:59:27.225Z,89.47
2018-10-06T15:00:37.132Z,89.18
2018-10-06T15:01:47.250Z,89.23
2018-10-06T15:02:56.824Z,88.75
2018-10-06T15:04:06.404Z,89.23
2018-10-06T15:05:16.256Z,89.23
2018-10-06T15:06:26.376Z,89.33
2018-10-06T15:07:35.686Z,89.43
2018-10-06T15:08:45.807Z,89.43
2018-10-06T15:09:55.115Z,89.23
2018-10-06T15:11:04.972Z,89.23
2018-10-06T15:12:14.820Z,89.62
2018-10-06T15:13:24.126Z,89.43
2018-10-06T15:14:34.240Z,89.14
2018-10-06T15:15:44.194Z,89.53
2018-10-06T15:16:53.875Z,89.72
2018-10-06T15:18:03.724Z,90.1
2018-10-06T15:19:13.306Z,89.33
2018-10-06T15:20:22.612Z,89.53
2018-10-06T15:21:32.328Z,89.72
2018-10-06T15:22:42.591Z,89.72
2018-10-06T15:23:52.713Z,90.2
2018-10-06T15:25:02.580Z,90.1
2018-10-06T15:26:12.158Z,89.81
2018-10-06T15:27:22.002Z,89.91
2018-10-06T15:28:32.120Z,89.91
2018-10-06T15:29:41.964Z,89.91
2018-10-06T15:30:51.839Z,90.2
2018-10-06T15:32:01.959Z,90.2
2018-10-06T15:33:11.844Z,89.91
2018-10-06T15:34:21.958Z,90.58
2018-10-06T15:35:31.536Z,90.3
2018-10-06T15:36:41.849Z,89.72
2018-10-06T15:37:51.998Z,89.23
2018-10-06T15:39:01.906Z,90
2018-10-06T15:40:11.805Z,90.1
2018-10-06T15:41:21.388Z,90
2018-10-06T15:42:31.237Z,90.58
2018-10-06T15:43:40.896Z,90.3